sensor_id;sensor_type;location;lat;lon;timestamp;temperature;humidity
52187;DHT22;38161;53.020;6.598;2023-01-31T00:00:45;3.40;99.90
52187;DHT22;38161;53.020;6.598;2023-01-31T00:03:11;3.30;99.90
52187;DHT22;38161;53.020;6.598;2023-01-31T00:05:37;3.30;99.90
52187;DHT22;38161;53.020;6.598;2023-01-31T00:08:03;3.30;99.90
52187;DHT22;38161;53.020;6.598;2023-01-31T00:10:28;3.30;99.90
52187;DHT22;38161;53.020;6.598;2023-01-31T00:12:56;3.30;99.90
52187;DHT22;38161;53.020;6.598;2023-01-31T00:15:21;3.30;99.90
52187;DHT22;38161;53.020;6.598;2023-01-31T00:17:47;3.30;99.90
52187;DHT22;38161;53.020;6.598;2023-01-31T00:20:13;3.50;99.90
52187;DHT22;38161;53.020;6.598;2023-01-31T00:22:39;3.20;99.90
52187;DHT22;38161;53.020;6.598;2023-01-31T00:25:05;3.20;99.90
52187;DHT22;38161;53.020;6.598;2023-01-31T00:27:31;3.20;99.90
52187;DHT22;38161;53.020;6.598;2023-01-31T00:29:57;3.20;99.90
52187;DHT22;38161;53.020;6.598;2023-01-31T00:32:23;3.20;99.90
52187;DHT22;38161;53.020;6.598;2023-01-31T00:34:54;3.10;99.90
52187;DHT22;38161;53.020;6.598;2023-01-31T00:37:20;3.20;99.90
52187;DHT22;38161;53.020;6.598;2023-01-31T00:39:46;3.20;99.90
52187;DHT22;38161;53.020;6.598;2023-01-31T00:42:12;3.30;99.90
52187;DHT22;38161;53.020;6.598;2023-01-31T00:44:38;3.20;99.90
52187;DHT22;38161;53.020;6.598;2023-01-31T00:47:04;3.20;99.90
52187;DHT22;38161;53.020;6.598;2023-01-31T00:49:29;3.10;99.90
52187;DHT22;38161;53.020;6.598;2023-01-31T00:51:55;3.10;99.90
52187;DHT22;38161;53.020;6.598;2023-01-31T00:54:21;3.00;99.90
52187;DHT22;38161;53.020;6.598;2023-01-31T00:56:47;3.00;99.90
52187;DHT22;38161;53.020;6.598;2023-01-31T00:59:12;3.00;99.90
52187;DHT22;38161;53.020;6.598;2023-01-31T01:01:38;3.00;99.90
52187;DHT22;38161;53.020;6.598;2023-01-31T01:04:04;2.90;99.90
52187;DHT22;38161;53.020;6.598;2023-01-31T01:06:30;2.90;99.90
52187;DHT22;38161;53.020;6.598;2023-01-31T01:08:56;2.90;99.90
52187;DHT22;38161;53.020;6.598;2023-01-31T01:11:32;2.80;99.90
52187;DHT22;38161;53.020;6.598;2023-01-31T01:13:58;2.90;99.90
52187;DHT22;38161;53.020;6.598;2023-01-31T01:16:32;2.80;99.90
52187;DHT22;38161;53.020;6.598;2023-01-31T01:19:00;2.80;99.90
52187;DHT22;38161;53.020;6.598;2023-01-31T01:21:28;2.80;99.90
52187;DHT22;38161;53.020;6.598;2023-01-31T01:23:56;2.70;99.90
52187;DHT22;38161;53.020;6.598;2023-01-31T01:26:28;2.80;99.90
52187;DHT22;38161;53.020;6.598;2023-01-31T01:28:55;2.70;99.90
52187;DHT22;38161;53.020;6.598;2023-01-31T01:31:22;2.70;99.90
52187;DHT22;38161;53.020;6.598;2023-01-31T01:34:06;2.80;99.90
52187;DHT22;38161;53.020;6.598;2023-01-31T01:36:34;2.70;99.90
52187;DHT22;38161;53.020;6.598;2023-01-31T01:39:01;2.70;99.90
52187;DHT22;38161;53.020;6.598;2023-01-31T01:41:27;2.70;99.90
52187;DHT22;38161;53.020;6.598;2023-01-31T01:43:55;2.70;99.90
52187;DHT22;38161;53.020;6.598;2023-01-31T01:49:03;2.60;99.90
52187;DHT22;38161;53.020;6.598;2023-01-31T01:51:31;2.60;99.90
52187;DHT22;38161;53.020;6.598;2023-01-31T01:54:01;2.60;99.90
52187;DHT22;38161;53.020;6.598;2023-01-31T01:56:38;2.70;99.90
52187;DHT22;38161;53.020;6.598;2023-01-31T01:59:15;2.70;99.90
52187;DHT22;38161;53.020;6.598;2023-01-31T02:01:43;2.60;99.90
52187;DHT22;38161;53.020;6.598;2023-01-31T02:04:14;2.60;99.90
52187;DHT22;38161;53.020;6.598;2023-01-31T02:06:42;2.60;99.90
52187;DHT22;38161;53.020;6.598;2023-01-31T02:09:10;2.60;99.90
52187;DHT22;38161;53.020;6.598;2023-01-31T02:11:38;2.60;99.90
52187;DHT22;38161;53.020;6.598;2023-01-31T02:14:08;2.60;99.90
52187;DHT22;38161;53.020;6.598;2023-01-31T02:16:35;2.60;99.90
52187;DHT22;38161;53.020;6.598;2023-01-31T02:19:01;2.60;99.90
52187;DHT22;38161;53.020;6.598;2023-01-31T02:33:24;2.80;99.90
52187;DHT22;38161;53.020;6.598;2023-01-31T02:41:28;2.90;99.90
52187;DHT22;38161;53.020;6.598;2023-01-31T02:44:02;2.90;99.90
52187;DHT22;38161;53.020;6.598;2023-01-31T02:46:59;2.90;99.90
52187;DHT22;38161;53.020;6.598;2023-01-31T02:49:39;2.90;99.90
52187;DHT22;38161;53.020;6.598;2023-01-31T02:54:55;3.00;99.90
52187;DHT22;38161;53.020;6.598;2023-01-31T02:57:44;3.00;99.90
52187;DHT22;38161;53.020;6.598;2023-01-31T03:00:12;3.00;99.90
52187;DHT22;38161;53.020;6.598;2023-01-31T03:02:38;3.00;99.90
52187;DHT22;38161;53.020;6.598;2023-01-31T03:05:04;3.00;99.90
52187;DHT22;38161;53.020;6.598;2023-01-31T03:07:33;3.00;99.90
52187;DHT22;38161;53.020;6.598;2023-01-31T03:10:18;3.00;99.90
52187;DHT22;38161;53.020;6.598;2023-01-31T03:15:59;3.10;99.90
52187;DHT22;38161;53.020;6.598;2023-01-31T03:21:29;3.10;99.90
52187;DHT22;38161;53.020;6.598;2023-01-31T03:23:58;3.10;99.90
52187;DHT22;38161;53.020;6.598;2023-01-31T03:26:25;3.10;99.90
52187;DHT22;38161;53.020;6.598;2023-01-31T03:28:53;3.10;99.90
52187;DHT22;38161;53.020;6.598;2023-01-31T03:31:38;3.30;99.90
52187;DHT22;38161;53.020;6.598;2023-01-31T03:34:09;3.20;99.90
52187;DHT22;38161;53.020;6.598;2023-01-31T03:42:07;3.30;99.90
52187;DHT22;38161;53.020;6.598;2023-01-31T03:44:41;3.30;99.90
52187;DHT22;38161;53.020;6.598;2023-01-31T03:47:14;3.30;99.90
52187;DHT22;38161;53.020;6.598;2023-01-31T03:49:42;3.50;99.90
52187;DHT22;38161;53.020;6.598;2023-01-31T03:52:11;3.40;99.90
52187;DHT22;38161;53.020;6.598;2023-01-31T03:54:45;3.40;99.90
52187;DHT22;38161;53.020;6.598;2023-01-31T03:57:26;3.40;99.90
52187;DHT22;38161;53.020;6.598;2023-01-31T03:59:56;3.50;99.90
52187;DHT22;38161;53.020;6.598;2023-01-31T04:02:33;3.50;99.90
52187;DHT22;38161;53.020;6.598;2023-01-31T04:07:31;3.60;99.90
52187;DHT22;38161;53.020;6.598;2023-01-31T04:09:56;3.70;99.90
52187;DHT22;38161;53.020;6.598;2023-01-31T04:12:23;3.70;99.90
52187;DHT22;38161;53.020;6.598;2023-01-31T04:14:48;3.70;99.90
52187;DHT22;38161;53.020;6.598;2023-01-31T04:17:14;3.70;99.90
52187;DHT22;38161;53.020;6.598;2023-01-31T04:19:40;3.70;99.90
52187;DHT22;38161;53.020;6.598;2023-01-31T04:22:05;3.80;99.90
52187;DHT22;38161;53.020;6.598;2023-01-31T04:24:31;3.80;99.90
52187;DHT22;38161;53.020;6.598;2023-01-31T04:26:57;3.80;99.90
52187;DHT22;38161;53.020;6.598;2023-01-31T04:29:23;3.90;99.90
52187;DHT22;38161;53.020;6.598;2023-01-31T04:31:48;4.00;99.90
52187;DHT22;38161;53.020;6.598;2023-01-31T04:34:14;3.90;99.90
52187;DHT22;38161;53.020;6.598;2023-01-31T04:36:40;3.90;99.90
52187;DHT22;38161;53.020;6.598;2023-01-31T04:39:05;4.00;99.90
52187;DHT22;38161;53.020;6.598;2023-01-31T04:41:31;4.00;99.90
52187;DHT22;38161;53.020;6.598;2023-01-31T04:43:57;4.00;99.90
52187;DHT22;38161;53.020;6.598;2023-01-31T04:46:23;4.00;99.90
52187;DHT22;38161;53.020;6.598;2023-01-31T04:48:48;4.00;99.90
52187;DHT22;38161;53.020;6.598;2023-01-31T04:51:14;4.00;99.90
52187;DHT22;38161;53.020;6.598;2023-01-31T04:53:42;4.00;99.90
52187;DHT22;38161;53.020;6.598;2023-01-31T04:56:09;4.00;99.90
52187;DHT22;38161;53.020;6.598;2023-01-31T04:58:35;4.00;99.90
52187;DHT22;38161;53.020;6.598;2023-01-31T05:01:00;4.00;99.90
52187;DHT22;38161;53.020;6.598;2023-01-31T05:03:26;4.30;99.90
52187;DHT22;38161;53.020;6.598;2023-01-31T05:05:52;4.00;99.90
52187;DHT22;38161;53.020;6.598;2023-01-31T05:08:17;4.10;99.90
52187;DHT22;38161;53.020;6.598;2023-01-31T05:10:43;4.00;99.90
52187;DHT22;38161;53.020;6.598;2023-01-31T05:13:10;4.00;99.90
52187;DHT22;38161;53.020;6.598;2023-01-31T05:15:36;4.00;99.90
52187;DHT22;38161;53.020;6.598;2023-01-31T05:18:02;4.10;99.90
52187;DHT22;38161;53.020;6.598;2023-01-31T05:20:35;4.10;99.90
52187;DHT22;38161;53.020;6.598;2023-01-31T05:23:02;4.40;99.90
52187;DHT22;38161;53.020;6.598;2023-01-31T05:25:28;4.20;99.90
52187;DHT22;38161;53.020;6.598;2023-01-31T05:27:55;4.20;99.90
52187;DHT22;38161;53.020;6.598;2023-01-31T05:30:22;4.30;99.90
52187;DHT22;38161;53.020;6.598;2023-01-31T05:32:49;4.30;99.90
52187;DHT22;38161;53.020;6.598;2023-01-31T05:35:15;4.30;99.90
52187;DHT22;38161;53.020;6.598;2023-01-31T05:37:42;4.30;99.90
52187;DHT22;38161;53.020;6.598;2023-01-31T05:40:13;4.40;99.90
52187;DHT22;38161;53.020;6.598;2023-01-31T05:42:39;4.40;99.90
52187;DHT22;38161;53.020;6.598;2023-01-31T05:45:06;4.50;99.90
52187;DHT22;38161;53.020;6.598;2023-01-31T05:47:33;4.40;99.90
52187;DHT22;38161;53.020;6.598;2023-01-31T05:49:58;4.40;99.90
52187;DHT22;38161;53.020;6.598;2023-01-31T05:52:25;4.40;99.90
52187;DHT22;38161;53.020;6.598;2023-01-31T05:54:51;4.50;99.90
52187;DHT22;38161;53.020;6.598;2023-01-31T05:57:17;4.50;99.90
52187;DHT22;38161;53.020;6.598;2023-01-31T05:59:43;4.70;99.90
52187;DHT22;38161;53.020;6.598;2023-01-31T06:02:08;4.50;99.90
52187;DHT22;38161;53.020;6.598;2023-01-31T06:04:36;4.60;99.90
52187;DHT22;38161;53.020;6.598;2023-01-31T06:07:02;4.60;99.90
52187;DHT22;38161;53.020;6.598;2023-01-31T06:09:28;4.60;99.90
52187;DHT22;38161;53.020;6.598;2023-01-31T06:11:54;4.70;99.90
52187;DHT22;38161;53.020;6.598;2023-01-31T06:14:20;4.70;99.90
52187;DHT22;38161;53.020;6.598;2023-01-31T06:16:45;4.70;99.90
52187;DHT22;38161;53.020;6.598;2023-01-31T06:19:11;4.80;99.90
52187;DHT22;38161;53.020;6.598;2023-01-31T06:21:37;4.80;99.90
52187;DHT22;38161;53.020;6.598;2023-01-31T06:24:03;4.80;99.90
52187;DHT22;38161;53.020;6.598;2023-01-31T06:26:29;4.80;99.90
52187;DHT22;38161;53.020;6.598;2023-01-31T06:28:55;4.90;99.90
52187;DHT22;38161;53.020;6.598;2023-01-31T06:31:20;5.00;99.90
52187;DHT22;38161;53.020;6.598;2023-01-31T06:33:46;4.90;99.90
52187;DHT22;38161;53.020;6.598;2023-01-31T06:36:12;4.90;99.90
52187;DHT22;38161;53.020;6.598;2023-01-31T06:38:37;4.90;99.90
52187;DHT22;38161;53.020;6.598;2023-01-31T06:41:03;4.90;99.90
52187;DHT22;38161;53.020;6.598;2023-01-31T06:43:29;5.00;99.90
52187;DHT22;38161;53.020;6.598;2023-01-31T06:45:55;5.00;99.90
52187;DHT22;38161;53.020;6.598;2023-01-31T06:48:20;5.00;99.90
52187;DHT22;38161;53.020;6.598;2023-01-31T06:50:47;5.00;99.90
52187;DHT22;38161;53.020;6.598;2023-01-31T06:53:12;5.00;99.90
52187;DHT22;38161;53.020;6.598;2023-01-31T06:55:38;5.00;99.90
52187;DHT22;38161;53.020;6.598;2023-01-31T06:58:04;5.00;99.90
52187;DHT22;38161;53.020;6.598;2023-01-31T07:00:30;5.10;99.90
52187;DHT22;38161;53.020;6.598;2023-01-31T07:02:55;5.10;99.90
52187;DHT22;38161;53.020;6.598;2023-01-31T07:05:21;5.10;99.90
52187;DHT22;38161;53.020;6.598;2023-01-31T07:07:48;5.10;99.90
52187;DHT22;38161;53.020;6.598;2023-01-31T07:10:15;5.10;99.90
52187;DHT22;38161;53.020;6.598;2023-01-31T07:12:41;5.10;99.90
52187;DHT22;38161;53.020;6.598;2023-01-31T07:15:08;5.10;99.90
52187;DHT22;38161;53.020;6.598;2023-01-31T07:17:34;5.10;99.90
52187;DHT22;38161;53.020;6.598;2023-01-31T07:20:00;5.10;99.90
52187;DHT22;38161;53.020;6.598;2023-01-31T07:22:25;5.20;99.90
52187;DHT22;38161;53.020;6.598;2023-01-31T07:24:51;5.20;99.90
52187;DHT22;38161;53.020;6.598;2023-01-31T07:27:17;5.20;99.90
52187;DHT22;38161;53.020;6.598;2023-01-31T07:29:43;5.40;99.90
52187;DHT22;38161;53.020;6.598;2023-01-31T07:32:09;5.30;99.90
52187;DHT22;38161;53.020;6.598;2023-01-31T07:34:35;5.20;99.90
52187;DHT22;38161;53.020;6.598;2023-01-31T07:37:01;5.30;99.90
52187;DHT22;38161;53.020;6.598;2023-01-31T07:39:27;5.30;99.90
52187;DHT22;38161;53.020;6.598;2023-01-31T07:41:53;5.30;99.90
52187;DHT22;38161;53.020;6.598;2023-01-31T07:44:19;5.30;99.90
52187;DHT22;38161;53.020;6.598;2023-01-31T07:46:45;5.30;99.90
52187;DHT22;38161;53.020;6.598;2023-01-31T07:49:11;5.30;99.90
52187;DHT22;38161;53.020;6.598;2023-01-31T07:51:37;5.30;99.90
52187;DHT22;38161;53.020;6.598;2023-01-31T07:54:06;5.30;99.90
52187;DHT22;38161;53.020;6.598;2023-01-31T07:56:32;5.30;99.90
52187;DHT22;38161;53.020;6.598;2023-01-31T07:58:58;5.40;99.90
52187;DHT22;38161;53.020;6.598;2023-01-31T08:01:26;5.40;99.90
52187;DHT22;38161;53.020;6.598;2023-01-31T08:04:12;5.30;99.90
52187;DHT22;38161;53.020;6.598;2023-01-31T08:06:39;5.40;99.90
52187;DHT22;38161;53.020;6.598;2023-01-31T08:09:05;5.40;99.90
52187;DHT22;38161;53.020;6.598;2023-01-31T08:11:31;5.40;99.90
52187;DHT22;38161;53.020;6.598;2023-01-31T08:13:57;5.40;99.90
52187;DHT22;38161;53.020;6.598;2023-01-31T08:16:23;5.40;99.90
52187;DHT22;38161;53.020;6.598;2023-01-31T08:18:50;5.40;99.90
52187;DHT22;38161;53.020;6.598;2023-01-31T08:21:15;5.40;99.90
52187;DHT22;38161;53.020;6.598;2023-01-31T08:23:42;5.40;99.90
52187;DHT22;38161;53.020;6.598;2023-01-31T08:26:15;5.40;99.90
52187;DHT22;38161;53.020;6.598;2023-01-31T08:28:41;5.40;99.90
52187;DHT22;38161;53.020;6.598;2023-01-31T08:31:13;5.50;99.90
52187;DHT22;38161;53.020;6.598;2023-01-31T08:33:39;5.50;99.90
52187;DHT22;38161;53.020;6.598;2023-01-31T08:36:10;5.50;99.90
52187;DHT22;38161;53.020;6.598;2023-01-31T08:38:37;5.50;99.90
52187;DHT22;38161;53.020;6.598;2023-01-31T08:41:02;5.50;99.90
52187;DHT22;38161;53.020;6.598;2023-01-31T08:43:28;5.50;99.90
52187;DHT22;38161;53.020;6.598;2023-01-31T08:45:54;5.50;99.90
52187;DHT22;38161;53.020;6.598;2023-01-31T08:48:19;5.50;99.90
52187;DHT22;38161;53.020;6.598;2023-01-31T08:50:45;5.60;99.90
52187;DHT22;38161;53.020;6.598;2023-01-31T08:53:11;5.60;99.90
52187;DHT22;38161;53.020;6.598;2023-01-31T08:55:36;5.60;99.90
52187;DHT22;38161;53.020;6.598;2023-01-31T08:58:02;5.60;99.90
52187;DHT22;38161;53.020;6.598;2023-01-31T09:00:28;5.60;99.90
52187;DHT22;38161;53.020;6.598;2023-01-31T09:02:56;5.60;99.90
52187;DHT22;38161;53.020;6.598;2023-01-31T09:05:24;5.70;99.90
52187;DHT22;38161;53.020;6.598;2023-01-31T09:07:50;5.70;99.90
52187;DHT22;38161;53.020;6.598;2023-01-31T09:10:17;5.70;99.90
52187;DHT22;38161;53.020;6.598;2023-01-31T09:12:43;5.70;99.90
52187;DHT22;38161;53.020;6.598;2023-01-31T09:15:09;5.80;99.90
52187;DHT22;38161;53.020;6.598;2023-01-31T09:17:35;5.70;99.90
52187;DHT22;38161;53.020;6.598;2023-01-31T09:20:01;5.70;99.90
52187;DHT22;38161;53.020;6.598;2023-01-31T09:22:31;5.80;99.90
52187;DHT22;38161;53.020;6.598;2023-01-31T09:24:58;5.80;99.90
52187;DHT22;38161;53.020;6.598;2023-01-31T09:27:25;5.80;99.90
52187;DHT22;38161;53.020;6.598;2023-01-31T09:29:50;5.80;99.90
52187;DHT22;38161;53.020;6.598;2023-01-31T09:32:16;5.80;99.90
52187;DHT22;38161;53.020;6.598;2023-01-31T09:34:42;5.80;99.90
52187;DHT22;38161;53.020;6.598;2023-01-31T09:37:08;5.90;99.90
52187;DHT22;38161;53.020;6.598;2023-01-31T09:39:33;5.90;99.90
52187;DHT22;38161;53.020;6.598;2023-01-31T09:45:06;6.00;99.90
52187;DHT22;38161;53.020;6.598;2023-01-31T09:47:42;6.00;99.90
52187;DHT22;38161;53.020;6.598;2023-01-31T09:50:33;6.00;99.90
52187;DHT22;38161;53.020;6.598;2023-01-31T09:52:59;6.00;99.90
52187;DHT22;38161;53.020;6.598;2023-01-31T09:55:46;6.10;99.90
52187;DHT22;38161;53.020;6.598;2023-01-31T10:00:55;6.10;99.90
52187;DHT22;38161;53.020;6.598;2023-01-31T10:06:18;6.10;99.90
52187;DHT22;38161;53.020;6.598;2023-01-31T10:09:05;6.10;99.90
52187;DHT22;38161;53.020;6.598;2023-01-31T10:14:42;6.10;99.90
52187;DHT22;38161;53.020;6.598;2023-01-31T10:17:28;6.10;99.90
52187;DHT22;38161;53.020;6.598;2023-01-31T10:20:12;6.10;99.90
52187;DHT22;38161;53.020;6.598;2023-01-31T10:23:04;6.20;99.90
52187;DHT22;38161;53.020;6.598;2023-01-31T10:25:51;6.20;99.90
52187;DHT22;38161;53.020;6.598;2023-01-31T10:28:39;6.20;99.90
52187;DHT22;38161;53.020;6.598;2023-01-31T10:36:32;6.30;99.90
52187;DHT22;38161;53.020;6.598;2023-01-31T10:39:01;6.30;99.90
52187;DHT22;38161;53.020;6.598;2023-01-31T10:44:20;6.30;99.90
52187;DHT22;38161;53.020;6.598;2023-01-31T10:46:46;6.30;99.90
52187;DHT22;38161;53.020;6.598;2023-01-31T10:49:12;6.30;99.90
52187;DHT22;38161;53.020;6.598;2023-01-31T10:51:42;6.30;99.90
52187;DHT22;38161;53.020;6.598;2023-01-31T10:57:05;6.20;99.90
52187;DHT22;38161;53.020;6.598;2023-01-31T10:59:40;6.20;99.90
52187;DHT22;38161;53.020;6.598;2023-01-31T11:02:20;6.20;99.90
52187;DHT22;38161;53.020;6.598;2023-01-31T11:04:49;6.20;99.90
52187;DHT22;38161;53.020;6.598;2023-01-31T11:07:15;6.20;99.90
52187;DHT22;38161;53.020;6.598;2023-01-31T11:10:27;6.20;99.90
52187;DHT22;38161;53.020;6.598;2023-01-31T11:13:02;6.20;99.90
52187;DHT22;38161;53.020;6.598;2023-01-31T11:15:39;6.30;99.90
52187;DHT22;38161;53.020;6.598;2023-01-31T11:18:12;6.20;99.90
52187;DHT22;38161;53.020;6.598;2023-01-31T11:20:46;6.30;99.90
52187;DHT22;38161;53.020;6.598;2023-01-31T11:23:22;6.30;99.90
52187;DHT22;38161;53.020;6.598;2023-01-31T11:25:50;6.30;99.90
52187;DHT22;38161;53.020;6.598;2023-01-31T11:28:37;6.30;99.90
52187;DHT22;38161;53.020;6.598;2023-01-31T11:31:06;6.30;99.90
52187;DHT22;38161;53.020;6.598;2023-01-31T11:33:48;6.30;99.90
52187;DHT22;38161;53.020;6.598;2023-01-31T11:36:19;6.30;99.90
52187;DHT22;38161;53.020;6.598;2023-01-31T11:38:48;6.30;99.90
52187;DHT22;38161;53.020;6.598;2023-01-31T11:41:30;6.30;99.90
52187;DHT22;38161;53.020;6.598;2023-01-31T11:44:06;6.30;99.90
52187;DHT22;38161;53.020;6.598;2023-01-31T11:46:39;6.40;99.90
52187;DHT22;38161;53.020;6.598;2023-01-31T11:49:18;6.40;99.90
52187;DHT22;38161;53.020;6.598;2023-01-31T11:51:46;6.40;99.90
52187;DHT22;38161;53.020;6.598;2023-01-31T11:54:18;6.40;99.90
52187;DHT22;38161;53.020;6.598;2023-01-31T11:56:45;6.40;99.90
52187;DHT22;38161;53.020;6.598;2023-01-31T11:59:15;6.40;99.90
52187;DHT22;38161;53.020;6.598;2023-01-31T12:01:48;6.40;99.90
52187;DHT22;38161;53.020;6.598;2023-01-31T12:04:19;6.40;99.90
52187;DHT22;38161;53.020;6.598;2023-01-31T12:07:26;6.50;99.90
52187;DHT22;38161;53.020;6.598;2023-01-31T12:09:54;6.50;99.90
52187;DHT22;38161;53.020;6.598;2023-01-31T12:12:33;6.60;99.90
52187;DHT22;38161;53.020;6.598;2023-01-31T12:15:12;6.60;99.90
52187;DHT22;38161;53.020;6.598;2023-01-31T12:17:44;6.70;99.90
52187;DHT22;38161;53.020;6.598;2023-01-31T12:31:04;7.00;99.90
52187;DHT22;38161;53.020;6.598;2023-01-31T12:49:57;7.20;99.90
52187;DHT22;38161;53.020;6.598;2023-01-31T12:55:20;7.30;99.90
52187;DHT22;38161;53.020;6.598;2023-01-31T13:08:35;7.50;99.90
52187;DHT22;38161;53.020;6.598;2023-01-31T13:11:06;7.60;99.90
52187;DHT22;38161;53.020;6.598;2023-01-31T13:13:47;7.70;99.90
52187;DHT22;38161;53.020;6.598;2023-01-31T13:16:25;7.60;99.90
52187;DHT22;38161;53.020;6.598;2023-01-31T13:18:55;7.70;99.90
52187;DHT22;38161;53.020;6.598;2023-01-31T13:21:28;7.70;99.90
52187;DHT22;38161;53.020;6.598;2023-01-31T13:27:28;7.70;99.90
52187;DHT22;38161;53.020;6.598;2023-01-31T13:30:00;7.70;99.90
52187;DHT22;38161;53.020;6.598;2023-01-31T13:32:28;7.70;99.90
52187;DHT22;38161;53.020;6.598;2023-01-31T13:37:43;7.80;99.90
52187;DHT22;38161;53.020;6.598;2023-01-31T13:40:20;7.70;99.90
52187;DHT22;38161;53.020;6.598;2023-01-31T13:42:46;7.80;99.90
52187;DHT22;38161;53.020;6.598;2023-01-31T13:45:43;7.70;99.90
52187;DHT22;38161;53.020;6.598;2023-01-31T13:48:26;7.80;99.90
52187;DHT22;38161;53.020;6.598;2023-01-31T13:51:01;7.70;99.90
52187;DHT22;38161;53.020;6.598;2023-01-31T13:53:35;7.70;99.90
52187;DHT22;38161;53.020;6.598;2023-01-31T13:56:02;7.70;99.90
52187;DHT22;38161;53.020;6.598;2023-01-31T13:58:33;7.70;99.90
52187;DHT22;38161;53.020;6.598;2023-01-31T14:01:18;7.80;99.90
52187;DHT22;38161;53.020;6.598;2023-01-31T14:10:23;7.80;99.90
52187;DHT22;38161;53.020;6.598;2023-01-31T14:14:51;7.80;99.90
52187;DHT22;38161;53.020;6.598;2023-01-31T14:22:23;7.70;99.90
52187;DHT22;38161;53.020;6.598;2023-01-31T14:27:20;7.80;99.90
52187;DHT22;38161;53.020;6.598;2023-01-31T14:35:24;7.80;99.90
52187;DHT22;38161;53.020;6.598;2023-01-31T14:57:40;7.70;99.90
52187;DHT22;38161;53.020;6.598;2023-01-31T15:11:05;7.70;99.90
52187;DHT22;38161;53.020;6.598;2023-01-31T15:13:52;7.60;99.90
52187;DHT22;38161;53.020;6.598;2023-01-31T15:16:25;7.60;99.90
52187;DHT22;38161;53.020;6.598;2023-01-31T15:21:53;7.60;99.90
52187;DHT22;38161;53.020;6.598;2023-01-31T15:26:50;7.50;99.90
52187;DHT22;38161;53.020;6.598;2023-01-31T15:29:48;7.50;99.90
52187;DHT22;38161;53.020;6.598;2023-01-31T15:32:38;7.50;99.90
52187;DHT22;38161;53.020;6.598;2023-01-31T15:38:00;7.40;99.90
52187;DHT22;38161;53.020;6.598;2023-01-31T15:40:28;7.40;99.90
52187;DHT22;38161;53.020;6.598;2023-01-31T15:43:21;7.30;99.90
52187;DHT22;38161;53.020;6.598;2023-01-31T15:45:48;7.30;99.90
52187;DHT22;38161;53.020;6.598;2023-01-31T15:48:19;7.30;99.90
52187;DHT22;38161;53.020;6.598;2023-01-31T15:50:55;7.30;99.90
52187;DHT22;38161;53.020;6.598;2023-01-31T15:53:26;7.30;99.90
52187;DHT22;38161;53.020;6.598;2023-01-31T15:55:57;7.20;99.90
52187;DHT22;38161;53.020;6.598;2023-01-31T15:58:28;7.20;99.90
52187;DHT22;38161;53.020;6.598;2023-01-31T16:00:57;7.20;99.90
52187;DHT22;38161;53.020;6.598;2023-01-31T16:03:29;7.20;99.90
52187;DHT22;38161;53.020;6.598;2023-01-31T16:05:57;7.10;99.90
52187;DHT22;38161;53.020;6.598;2023-01-31T16:08:34;7.10;99.90
52187;DHT22;38161;53.020;6.598;2023-01-31T16:11:02;7.10;99.90
52187;DHT22;38161;53.020;6.598;2023-01-31T16:13:36;7.00;99.90
52187;DHT22;38161;53.020;6.598;2023-01-31T16:16:04;6.90;99.90
52187;DHT22;38161;53.020;6.598;2023-01-31T16:18:30;6.90;99.90
52187;DHT22;38161;53.020;6.598;2023-01-31T16:20:57;6.80;99.90
52187;DHT22;38161;53.020;6.598;2023-01-31T16:23:27;6.80;99.90
52187;DHT22;38161;53.020;6.598;2023-01-31T16:26:14;6.70;99.90
52187;DHT22;38161;53.020;6.598;2023-01-31T16:28:43;6.70;99.90
52187;DHT22;38161;53.020;6.598;2023-01-31T16:31:12;6.60;99.90
52187;DHT22;38161;53.020;6.598;2023-01-31T16:33:46;6.50;99.90
52187;DHT22;38161;53.020;6.598;2023-01-31T16:36:13;6.50;99.90
52187;DHT22;38161;53.020;6.598;2023-01-31T16:38:40;6.50;99.90
52187;DHT22;38161;53.020;6.598;2023-01-31T16:41:07;6.40;99.90
52187;DHT22;38161;53.020;6.598;2023-01-31T16:43:40;6.40;99.90
52187;DHT22;38161;53.020;6.598;2023-01-31T16:46:19;6.40;99.90
52187;DHT22;38161;53.020;6.598;2023-01-31T16:49:01;6.30;99.90
52187;DHT22;38161;53.020;6.598;2023-01-31T16:56:46;6.20;99.90
52187;DHT22;38161;53.020;6.598;2023-01-31T17:02:22;6.20;99.90
52187;DHT22;38161;53.020;6.598;2023-01-31T17:04:50;6.20;99.90
52187;DHT22;38161;53.020;6.598;2023-01-31T17:07:20;6.10;99.90
52187;DHT22;38161;53.020;6.598;2023-01-31T17:09:47;6.10;99.90
52187;DHT22;38161;53.020;6.598;2023-01-31T17:12:27;6.10;99.90
52187;DHT22;38161;53.020;6.598;2023-01-31T17:14:53;6.10;99.90
52187;DHT22;38161;53.020;6.598;2023-01-31T17:17:32;6.00;99.90
52187;DHT22;38161;53.020;6.598;2023-01-31T17:20:05;6.00;99.90
52187;DHT22;38161;53.020;6.598;2023-01-31T17:22:31;6.00;99.90
52187;DHT22;38161;53.020;6.598;2023-01-31T17:24:57;6.00;99.90
52187;DHT22;38161;53.020;6.598;2023-01-31T17:27:22;5.90;99.90
52187;DHT22;38161;53.020;6.598;2023-01-31T17:29:49;5.90;99.90
52187;DHT22;38161;53.020;6.598;2023-01-31T17:32:17;5.80;99.90
52187;DHT22;38161;53.020;6.598;2023-01-31T17:34:44;5.90;99.90
52187;DHT22;38161;53.020;6.598;2023-01-31T17:37:12;5.80;99.90
52187;DHT22;38161;53.020;6.598;2023-01-31T17:39:38;5.70;99.90
52187;DHT22;38161;53.020;6.598;2023-01-31T17:42:04;5.80;99.90
52187;DHT22;38161;53.020;6.598;2023-01-31T17:44:30;5.80;99.90
52187;DHT22;38161;53.020;6.598;2023-01-31T17:46:56;5.70;99.90
52187;DHT22;38161;53.020;6.598;2023-01-31T17:49:22;5.70;99.90
52187;DHT22;38161;53.020;6.598;2023-01-31T17:51:47;5.70;99.90
52187;DHT22;38161;53.020;6.598;2023-01-31T17:54:13;5.70;99.90
52187;DHT22;38161;53.020;6.598;2023-01-31T17:56:39;5.70;99.90
52187;DHT22;38161;53.020;6.598;2023-01-31T17:59:05;5.70;99.90
52187;DHT22;38161;53.020;6.598;2023-01-31T18:01:31;5.60;99.90
52187;DHT22;38161;53.020;6.598;2023-01-31T18:03:57;5.70;99.90
52187;DHT22;38161;53.020;6.598;2023-01-31T18:06:25;5.60;99.90
52187;DHT22;38161;53.020;6.598;2023-01-31T18:08:50;5.60;99.90
52187;DHT22;38161;53.020;6.598;2023-01-31T18:11:17;5.60;99.90
52187;DHT22;38161;53.020;6.598;2023-01-31T18:13:43;5.60;99.90
52187;DHT22;38161;53.020;6.598;2023-01-31T18:16:15;5.50;99.90
52187;DHT22;38161;53.020;6.598;2023-01-31T18:18:43;5.60;99.90
52187;DHT22;38161;53.020;6.598;2023-01-31T18:21:10;5.50;99.90
52187;DHT22;38161;53.020;6.598;2023-01-31T18:23:36;5.50;99.90
52187;DHT22;38161;53.020;6.598;2023-01-31T18:26:03;5.50;99.90
52187;DHT22;38161;53.020;6.598;2023-01-31T18:28:29;5.50;99.90
52187;DHT22;38161;53.020;6.598;2023-01-31T18:31:03;5.50;99.90
52187;DHT22;38161;53.020;6.598;2023-01-31T18:33:30;5.50;99.90
52187;DHT22;38161;53.020;6.598;2023-01-31T18:35:59;5.50;99.90
52187;DHT22;38161;53.020;6.598;2023-01-31T18:38:26;5.50;99.90
52187;DHT22;38161;53.020;6.598;2023-01-31T18:40:52;5.40;99.90
52187;DHT22;38161;53.020;6.598;2023-01-31T18:43:19;5.40;99.90
52187;DHT22;38161;53.020;6.598;2023-01-31T18:45:45;5.40;99.90
52187;DHT22;38161;53.020;6.598;2023-01-31T18:48:11;5.40;99.90
52187;DHT22;38161;53.020;6.598;2023-01-31T18:50:37;5.40;99.90
52187;DHT22;38161;53.020;6.598;2023-01-31T18:53:03;5.40;99.90
52187;DHT22;38161;53.020;6.598;2023-01-31T18:55:29;5.40;99.90